Time;durP1;ratioP1;P1;durP2;ratioP2;P2;SDS_P1;SDS_P2;PMS_P1;PMS_P2;Temp;Humidity;BMP_temperature;BMP_pressure;BME280_temperature;BME280_humidity;BME280_pressure;Samples;Min_cycle;Max_cycle;Signal;HPM_P1;HPM_P2
2023/08/13 00:01:23;;;;;;;;;;;18.70;99.90;;;;;;8432053;27;20412;-70
2023/08/13 00:05:25;;;;;;;;;;;18.60;99.90;;;;;;8420307;28;19982;-70
2023/08/13 00:09:27;;;;;;;;;;;18.50;99.90;;;;;;8409867;28;20050;-70
2023/08/13 00:13:28;;;;;;;;;;;18.50;99.90;;;;;;8413731;28;19924;-70
2023/08/13 00:17:30;;;;;;;;;;;18.40;99.90;;;;;;8402051;28;19986;-70
2023/08/13 00:21:32;;;;;;;;;;;18.40;99.90;;;;;;8436228;28;20391;-70
2023/08/13 00:25:33;;;;;;;;;;;18.30;99.90;;;;;;8422989;28;19928;-70
2023/08/13 00:34:38;;;;;;;;;;;18.30;99.90;;;;;;8423246;28;19989;-70
2023/08/13 00:38:40;;;;;;;;;;;18.30;99.90;;;;;;8432432;28;19935;-70
2023/08/13 00:42:42;;;;;;;;;;;18.30;99.90;;;;;;8409130;28;19931;-70
2023/08/13 00:46:44;;;;;;;;;;;18.20;99.90;;;;;;8426355;28;20349;-70
2023/08/13 00:50:46;;;;;;;;;;;18.20;99.90;;;;;;8401816;28;19970;-70
2023/08/13 00:54:48;;;;;;;;;;;18.20;99.90;;;;;;8401493;28;19924;-70
2023/08/13 00:58:49;;;;;;;;;;;18.20;99.90;;;;;;8428747;28;19923;-70
2023/08/13 01:02:51;;;;;;;;;;;18.20;99.90;;;;;;8421622;28;19954;-70
2023/08/13 01:06:54;;;;;;;;;;;18.20;99.90;;;;;;8407972;28;19963;-70
2023/08/13 01:11:09;;;;;;;;;;;18.30;99.90;;;;;;8405380;28;19928;-70
2023/08/13 01:15:15;;;;;;;;;;;18.30;99.90;;;;;;8408912;28;20441;-70
2023/08/13 01:19:16;;;;;;;;;;;18.30;99.90;;;;;;8402179;28;19931;-70
2023/08/13 01:23:18;;;;;;;;;;;18.30;99.90;;;;;;8415812;28;19928;-70
2023/08/13 01:27:20;;;;;;;;;;;18.30;99.90;;;;;;8422351;28;19928;-70
2023/08/13 01:31:25;;;;;;;;;;;18.20;99.90;;;;;;8425748;28;19978;-70
2023/08/13 01:35:28;;;;;;;;;;;18.20;99.90;;;;;;8411945;28;19928;-70
2023/08/13 01:39:29;;;;;;;;;;;18.10;99.90;;;;;;8397721;28;19962;-70
2023/08/13 01:43:31;;;;;;;;;;;18.00;99.90;;;;;;8414495;28;19928;-70
2023/08/13 01:47:33;;;;;;;;;;;18.00;99.90;;;;;;8401877;28;19924;-70
2023/08/13 01:51:35;;;;;;;;;;;17.90;99.90;;;;;;8409208;28;20004;-70
2023/08/13 01:55:36;;;;;;;;;;;17.90;99.90;;;;;;8405993;28;19928;-70
2023/08/13 01:59:38;;;;;;;;;;;17.90;99.90;;;;;;8422730;28;19924;-70
2023/08/13 02:03:39;;;;;;;;;;;17.90;99.90;;;;;;8417510;28;19924;-70
2023/08/13 02:07:41;;;;;;;;;;;17.80;99.90;;;;;;8404737;28;19932;-70
2023/08/13 02:11:43;;;;;;;;;;;17.80;99.90;;;;;;8414766;28;20436;-70
2023/08/13 02:15:44;;;;;;;;;;;17.80;99.90;;;;;;8424195;28;19924;-71
2023/08/13 02:19:46;;;;;;;;;;;17.70;99.90;;;;;;8424012;28;19932;-70
2023/08/13 02:23:48;;;;;;;;;;;17.60;99.90;;;;;;8398274;28;19924;-70
2023/08/13 02:27:50;;;;;;;;;;;17.60;99.90;;;;;;8414746;28;19977;-70
2023/08/13 02:31:51;;;;;;;;;;;17.50;99.90;;;;;;8416950;28;20390;-70
2023/08/13 02:35:53;;;;;;;;;;;17.50;99.90;;;;;;8424753;28;20425;-70
2023/08/13 02:39:55;;;;;;;;;;;17.40;99.90;;;;;;8417078;28;19924;-70
2023/08/13 02:43:56;;;;;;;;;;;17.40;99.90;;;;;;8384690;28;19976;-70
2023/08/13 02:47:58;;;;;;;;;;;17.40;99.90;;;;;;8422161;28;19924;-70
2023/08/13 02:52:00;;;;;;;;;;;17.40;99.90;;;;;;8414622;28;19968;-70
2023/08/13 02:56:02;;;;;;;;;;;17.40;99.90;;;;;;8409175;28;19931;-70
2023/08/13 03:00:04;;;;;;;;;;;17.40;99.90;;;;;;8403319;28;19931;-70
2023/08/13 03:04:06;;;;;;;;;;;17.40;99.90;;;;;;8444613;27;19924;-70
2023/08/13 03:08:08;;;;;;;;;;;17.40;99.90;;;;;;8436479;28;19981;-70
2023/08/13 03:12:09;;;;;;;;;;;17.40;99.90;;;;;;8408308;28;19925;-70
2023/08/13 03:16:11;;;;;;;;;;;17.40;99.90;;;;;;8418544;28;19923;-70
2023/08/13 03:20:13;;;;;;;;;;;17.40;99.90;;;;;;8420552;28;19934;-70
2023/08/13 03:24:15;;;;;;;;;;;17.40;99.90;;;;;;8401656;28;19932;-70
2023/08/13 03:28:16;;;;;;;;;;;17.30;99.90;;;;;;8412782;28;20265;-70
2023/08/13 03:32:18;;;;;;;;;;;17.30;99.90;;;;;;8385366;28;20401;-70
2023/08/13 03:36:20;;;;;;;;;;;17.20;99.90;;;;;;8429702;28;20275;-70
2023/08/13 03:40:21;;;;;;;;;;;17.20;99.90;;;;;;8402590;28;20403;-70
2023/08/13 03:44:23;;;;;;;;;;;17.20;99.90;;;;;;8418954;28;21908;-70
2023/08/13 03:48:24;;;;;;;;;;;17.10;99.90;;;;;;8429448;28;20174;-70
2023/08/13 03:52:26;;;;;;;;;;;17.10;99.90;;;;;;8408170;28;19927;-70
2023/08/13 03:56:28;;;;;;;;;;;17.10;99.90;;;;;;8426827;27;20387;-70
2023/08/13 04:00:30;;;;;;;;;;;17.20;99.90;;;;;;8407085;28;20380;-70
2023/08/13 04:04:31;;;;;;;;;;;17.20;99.90;;;;;;8417781;28;19928;-70
2023/08/13 04:08:35;;;;;;;;;;;17.10;99.90;;;;;;8418592;28;19924;-70
2023/08/13 04:12:37;;;;;;;;;;;17.10;99.90;;;;;;8423820;28;20338;-70
2023/08/13 04:16:38;;;;;;;;;;;17.00;99.90;;;;;;8433037;28;19939;-70
2023/08/13 04:20:40;;;;;;;;;;;17.00;99.90;;;;;;8420714;28;19971;-70
2023/08/13 04:24:42;;;;;;;;;;;17.00;99.90;;;;;;8419557;28;20020;-70
2023/08/13 04:28:43;;;;;;;;;;;16.90;99.90;;;;;;8416560;28;19930;-70
2023/08/13 04:32:51;;;;;;;;;;;16.90;99.90;;;;;;8420743;28;19924;-70
2023/08/13 04:36:53;;;;;;;;;;;16.90;99.90;;;;;;8437333;28;19927;-70
2023/08/13 04:40:55;;;;;;;;;;;16.90;99.90;;;;;;8403823;28;19924;-70
2023/08/13 04:44:56;;;;;;;;;;;17.00;99.90;;;;;;8412792;28;20307;-70
2023/08/13 04:48:58;;;;;;;;;;;17.00;99.90;;;;;;8384101;28;19943;-70
2023/08/13 04:53:00;;;;;;;;;;;17.00;99.90;;;;;;8395713;28;20525;-70
2023/08/13 04:57:01;;;;;;;;;;;17.00;99.90;;;;;;8405162;28;19928;-70
2023/08/13 05:01:03;;;;;;;;;;;17.00;99.90;;;;;;8420744;28;19928;-70
2023/08/13 05:05:05;;;;;;;;;;;17.00;99.90;;;;;;8412104;28;19924;-70
2023/08/13 05:09:07;;;;;;;;;;;17.00;99.90;;;;;;8414632;28;20151;-70
2023/08/13 05:13:09;;;;;;;;;;;17.00;99.90;;;;;;8431184;28;19974;-70
2023/08/13 05:17:18;;;;;;;;;;;17.00;99.90;;;;;;8419516;28;19924;-70
2023/08/13 05:21:20;;;;;;;;;;;17.10;99.90;;;;;;8409640;28;20395;-70
2023/08/13 05:25:21;;;;;;;;;;;17.10;99.90;;;;;;8408766;28;20368;-70
2023/08/13 05:29:23;;;;;;;;;;;17.10;99.90;;;;;;8413674;28;19928;-70
2023/08/13 05:33:25;;;;;;;;;;;17.10;99.90;;;;;;8415364;28;20326;-70
2023/08/13 05:37:26;;;;;;;;;;;17.10;99.90;;;;;;8438212;28;19924;-70
2023/08/13 05:41:28;;;;;;;;;;;17.20;99.90;;;;;;8424151;28;19928;-70
2023/08/13 05:45:30;;;;;;;;;;;17.20;99.90;;;;;;8434603;28;19947;-70
2023/08/13 05:59:44;;;;;;;;;;;17.40;99.90;;;;;;8424937;28;20374;-70
2023/08/13 06:03:45;;;;;;;;;;;17.50;99.90;;;;;;8435451;28;19924;-70
2023/08/13 06:07:47;;;;;;;;;;;17.60;99.90;;;;;;8440410;28;20378;-70
2023/08/13 06:11:49;;;;;;;;;;;17.70;99.90;;;;;;8425144;28;19929;-70
2023/08/13 06:15:50;;;;;;;;;;;17.80;99.90;;;;;;8418968;28;20495;-70
2023/08/13 06:19:52;;;;;;;;;;;17.90;99.90;;;;;;8437223;28;19924;-70
2023/08/13 06:23:54;;;;;;;;;;;18.00;99.90;;;;;;8425984;28;19924;-70
2023/08/13 06:27:56;;;;;;;;;;;18.00;99.90;;;;;;8431746;28;19974;-70
2023/08/13 06:36:37;;;;;;;;;;;18.20;99.90;;;;;;8427510;28;19927;-70
2023/08/13 06:40:39;;;;;;;;;;;18.20;99.90;;;;;;8412585;28;19935;-70
2023/08/13 06:44:40;;;;;;;;;;;18.20;99.90;;;;;;8409949;28;19936;-70
2023/08/13 06:48:42;;;;;;;;;;;18.20;99.90;;;;;;8423996;28;19931;-70
2023/08/13 06:52:44;;;;;;;;;;;18.30;99.90;;;;;;8425584;28;19924;-70
2023/08/13 06:56:45;;;;;;;;;;;18.40;99.90;;;;;;8404149;28;19928;-70
2023/08/13 07:00:47;;;;;;;;;;;18.40;99.90;;;;;;8417577;27;19939;-70
2023/08/13 07:04:49;;;;;;;;;;;18.50;99.90;;;;;;8397838;28;19932;-70
2023/08/13 07:08:53;;;;;;;;;;;18.60;99.90;;;;;;8395240;28;20026;-70
2023/08/13 07:12:55;;;;;;;;;;;18.70;99.90;;;;;;8391737;28;19944;-70
2023/08/13 07:16:56;;;;;;;;;;;18.70;99.90;;;;;;8381393;28;19932;-70
2023/08/13 07:20:58;;;;;;;;;;;18.70;99.90;;;;;;8394649;28;19932;-70
2023/08/13 07:25:00;;;;;;;;;;;18.80;99.90;;;;;;8399124;28;19936;-70
2023/08/13 07:29:06;;;;;;;;;;;18.90;99.90;;;;;;8383892;28;19924;-70
2023/08/13 07:33:07;;;;;;;;;;;19.00;99.90;;;;;;8391562;28;19925;-70
2023/08/13 07:37:09;;;;;;;;;;;19.00;99.90;;;;;;8385948;28;19928;-70
2023/08/13 07:41:11;;;;;;;;;;;19.10;99.90;;;;;;8412568;28;19928;-70
2023/08/13 07:45:13;;;;;;;;;;;19.10;99.90;;;;;;8392381;28;20300;-70
2023/08/13 07:49:14;;;;;;;;;;;19.10;99.90;;;;;;8392396;28;19924;-70
2023/08/13 07:53:16;;;;;;;;;;;19.20;99.90;;;;;;8395503;28;19985;-70
2023/08/13 07:57:18;;;;;;;;;;;19.20;99.90;;;;;;8390156;28;20806;-69
2023/08/13 08:01:19;;;;;;;;;;;19.30;99.90;;;;;;8392014;28;19933;-70
2023/08/13 08:05:23;;;;;;;;;;;19.40;99.90;;;;;;8388504;28;20125;-70
2023/08/13 08:09:25;;;;;;;;;;;19.50;99.90;;;;;;8395618;28;20312;-70
2023/08/13 08:13:26;;;;;;;;;;;19.50;99.90;;;;;;8391919;28;19985;-70
2023/08/13 08:17:29;;;;;;;;;;;19.60;99.90;;;;;;8391273;28;20042;-70
2023/08/13 08:21:31;;;;;;;;;;;19.60;99.90;;;;;;8395052;28;19975;-70
2023/08/13 08:25:32;;;;;;;;;;;19.70;99.90;;;;;;8389536;28;19939;-70
2023/08/13 08:29:34;;;;;;;;;;;19.70;99.90;;;;;;8396359;28;19924;-70
2023/08/13 08:33:36;;;;;;;;;;;19.80;99.90;;;;;;8406662;28;23511;-70
2023/08/13 08:37:37;;;;;;;;;;;19.80;99.90;;;;;;8389788;28;19936;-70
2023/08/13 08:41:43;;;;;;;;;;;19.90;99.90;;;;;;8395307;28;19936;-70
2023/08/13 08:45:45;;;;;;;;;;;19.90;99.90;;;;;;8403454;28;19929;-70
2023/08/13 08:49:48;;;;;;;;;;;19.90;99.90;;;;;;8392579;28;19956;-70
2023/08/13 08:53:50;;;;;;;;;;;19.90;99.90;;;;;;8387825;28;19929;-70
2023/08/13 08:57:54;;;;;;;;;;;19.90;99.90;;;;;;8387181;28;19924;-70
2023/08/13 09:01:57;;;;;;;;;;;19.90;99.90;;;;;;8392645;28;20071;-70
2023/08/13 09:05:59;;;;;;;;;;;19.90;99.90;;;;;;8376430;28;20145;-70
2023/08/13 09:10:12;;;;;;;;;;;19.80;99.90;;;;;;8397665;28;19925;-70
2023/08/13 09:14:14;;;;;;;;;;;19.90;99.90;;;;;;8384493;28;19929;-70
2023/08/13 09:18:16;;;;;;;;;;;20.00;99.90;;;;;;8375179;28;19925;-70
2023/08/13 09:22:18;;;;;;;;;;;20.10;99.90;;;;;;8397930;28;19963;-70
2023/08/13 09:26:19;;;;;;;;;;;20.20;99.90;;;;;;8397817;28;19933;-70
2023/08/13 09:30:28;;;;;;;;;;;20.30;99.90;;;;;;8397646;28;19940;-70
2023/08/13 09:34:30;;;;;;;;;;;20.30;99.90;;;;;;8391780;28;19924;-71
2023/08/13 09:38:32;;;;;;;;;;;20.30;99.90;;;;;;8403832;28;19982;-71
2023/08/13 09:42:34;;;;;;;;;;;20.30;99.90;;;;;;8406387;28;19935;-70
2023/08/13 09:46:36;;;;;;;;;;;20.30;99.90;;;;;;8384494;28;20028;-70
2023/08/13 09:50:41;;;;;;;;;;;20.20;99.90;;;;;;8393628;28;19933;-70
2023/08/13 09:54:47;;;;;;;;;;;20.30;99.90;;;;;;8396471;28;20229;-71
2023/08/13 09:58:48;;;;;;;;;;;20.40;99.90;;;;;;8387473;28;19924;-71
2023/08/13 10:02:51;;;;;;;;;;;20.50;99.90;;;;;;8396556;28;19940;-70
2023/08/13 10:06:54;;;;;;;;;;;20.60;99.90;;;;;;8382461;28;19931;-71
2023/08/13 10:10:56;;;;;;;;;;;20.60;99.90;;;;;;8393513;28;20292;-71
2023/08/13 10:14:58;;;;;;;;;;;20.70;99.90;;;;;;8395658;28;19928;-70
2023/08/13 10:19:00;;;;;;;;;;;20.60;99.90;;;;;;8395862;28;19933;-70
2023/08/13 10:23:07;;;;;;;;;;;20.60;99.90;;;;;;8392131;28;19936;-70
2023/08/13 10:27:11;;;;;;;;;;;20.60;99.90;;;;;;8410212;27;19932;-71
2023/08/13 10:31:23;;;;;;;;;;;20.60;99.90;;;;;;8394689;28;19924;-70
2023/08/13 10:35:34;;;;;;;;;;;20.70;99.90;;;;;;8397026;28;20341;-70
2023/08/13 10:39:37;;;;;;;;;;;20.80;99.90;;;;;;8394373;28;20358;-70
2023/08/13 10:43:39;;;;;;;;;;;21.00;99.90;;;;;;8397204;28;19996;-70
2023/08/13 10:47:48;;;;;;;;;;;21.10;99.90;;;;;;8392773;28;19933;-71
2023/08/13 10:51:50;;;;;;;;;;;21.20;99.90;;;;;;8388987;28;19932;-70
2023/08/13 10:55:52;;;;;;;;;;;21.30;99.90;;;;;;8390469;28;19931;-70
2023/08/13 10:59:56;;;;;;;;;;;21.20;99.90;;;;;;8398005;28;19935;-70
2023/08/13 11:03:57;;;;;;;;;;;21.20;99.90;;;;;;8393433;28;19935;-70
2023/08/13 11:08:00;;;;;;;;;;;21.20;99.90;;;;;;8379001;28;19961;-70
2023/08/13 11:12:02;;;;;;;;;;;21.20;99.90;;;;;;8393658;28;19932;-70
2023/08/13 11:16:04;;;;;;;;;;;21.20;99.90;;;;;;8382857;28;19928;-70
2023/08/13 11:20:06;;;;;;;;;;;21.20;99.90;;;;;;8392717;28;20426;-70
2023/08/13 11:24:10;;;;;;;;;;;21.30;99.90;;;;;;8392622;28;19998;-70
2023/08/13 11:28:21;;;;;;;;;;;21.30;99.90;;;;;;8384060;28;19928;-70
2023/08/13 11:32:23;;;;;;;;;;;21.30;99.90;;;;;;8389676;28;19928;-70
2023/08/13 11:36:25;;;;;;;;;;;21.30;99.90;;;;;;8394427;28;19925;-70
2023/08/13 11:40:27;;;;;;;;;;;21.40;99.90;;;;;;8394037;28;20046;-71
2023/08/13 11:44:30;;;;;;;;;;;21.40;99.90;;;;;;8386535;28;20444;-70
2023/08/13 11:48:33;;;;;;;;;;;21.50;99.90;;;;;;8409714;27;20342;-71
2023/08/13 11:52:35;;;;;;;;;;;21.60;99.90;;;;;;8400206;28;19929;-71
2023/08/13 11:56:40;;;;;;;;;;;21.60;99.90;;;;;;8404355;28;19924;-71
2023/08/13 12:00:41;;;;;;;;;;;21.60;99.90;;;;;;8395464;28;20435;-71
2023/08/13 12:04:47;;;;;;;;;;;21.70;99.90;;;;;;8417446;27;19928;-71
2023/08/13 12:08:51;;;;;;;;;;;21.70;99.90;;;;;;8403315;28;19924;-71
2023/08/13 12:12:53;;;;;;;;;;;21.70;99.90;;;;;;8393396;28;19981;-71
2023/08/13 12:16:55;;;;;;;;;;;21.70;99.90;;;;;;8395250;28;20421;-71
2023/08/13 12:20:57;;;;;;;;;;;21.70;99.90;;;;;;8392836;28;20267;-71
2023/08/13 12:24:59;;;;;;;;;;;21.90;99.90;;;;;;8398271;28;20261;-71
2023/08/13 12:29:02;;;;;;;;;;;21.90;99.90;;;;;;8397322;28;20025;-71
2023/08/13 12:33:04;;;;;;;;;;;21.90;99.90;;;;;;8396950;28;19978;-71
2023/08/13 12:37:05;;;;;;;;;;;21.90;99.90;;;;;;8409446;28;19956;-71
2023/08/13 12:41:08;;;;;;;;;;;21.90;99.90;;;;;;8396105;28;20631;-71
2023/08/13 12:45:10;;;;;;;;;;;21.80;99.90;;;;;;8394557;28;19968;-71
2023/08/13 12:49:12;;;;;;;;;;;21.90;99.90;;;;;;8396142;28;19928;-71
2023/08/13 12:53:13;;;;;;;;;;;22.00;99.90;;;;;;8393997;28;20257;-71
2023/08/13 12:57:15;;;;;;;;;;;22.10;99.90;;;;;;8406063;28;20372;-71
2023/08/13 13:01:16;;;;;;;;;;;22.10;99.90;;;;;;8398349;28;19928;-71
2023/08/13 13:05:18;;;;;;;;;;;22.10;99.90;;;;;;8395296;28;19979;-71
2023/08/13 13:09:20;;;;;;;;;;;22.10;99.90;;;;;;8393655;28;19928;-71
2023/08/13 13:13:22;;;;;;;;;;;22.20;99.90;;;;;;8397194;28;20046;-71
2023/08/13 13:17:26;;;;;;;;;;;22.30;99.90;;;;;;8389107;28;20322;-70
2023/08/13 13:21:28;;;;;;;;;;;22.30;99.90;;;;;;8395717;28;19928;-71
2023/08/13 13:25:30;;;;;;;;;;;22.40;99.90;;;;;;8410330;28;19978;-71
2023/08/13 13:29:31;;;;;;;;;;;22.50;99.90;;;;;;8395290;28;19974;-71
2023/08/13 13:33:33;;;;;;;;;;;22.50;99.90;;;;;;8390619;28;19924;-71
2023/08/13 13:37:35;;;;;;;;;;;22.50;99.90;;;;;;8394017;28;19929;-71
2023/08/13 13:41:36;;;;;;;;;;;22.60;99.90;;;;;;8388601;28;20296;-71
2023/08/13 13:45:38;;;;;;;;;;;22.60;99.90;;;;;;8395082;28;19925;-71
2023/08/13 13:49:40;;;;;;;;;;;22.60;99.90;;;;;;8391349;28;20257;-71
2023/08/13 13:53:41;;;;;;;;;;;22.60;99.90;;;;;;8394913;28;23722;-71
2023/08/13 13:57:43;;;;;;;;;;;22.50;99.90;;;;;;8417188;28;19928;-71
2023/08/13 14:01:46;;;;;;;;;;;22.40;99.90;;;;;;8400053;28;19938;-71
2023/08/13 14:05:51;;;;;;;;;;;22.30;99.90;;;;;;8400900;28;19925;-71
2023/08/13 14:09:53;;;;;;;;;;;22.20;99.90;;;;;;8403689;28;19924;-71
2023/08/13 14:13:55;;;;;;;;;;;22.10;99.90;;;;;;8418076;27;19932;-71
2023/08/13 14:17:56;;;;;;;;;;;22.00;99.90;;;;;;8398224;28;19925;-71
2023/08/13 14:21:58;;;;;;;;;;;21.90;99.90;;;;;;8406938;28;20376;-70
2023/08/13 14:26:00;;;;;;;;;;;21.80;99.90;;;;;;8401744;28;19928;-71
2023/08/13 14:30:02;;;;;;;;;;;21.80;99.90;;;;;;8402387;28;22321;-70
2023/08/13 14:34:04;;;;;;;;;;;21.80;99.90;;;;;;8414481;27;19924;-70
2023/08/13 14:38:06;;;;;;;;;;;21.80;99.90;;;;;;8397904;28;19932;-70
2023/08/13 14:42:08;;;;;;;;;;;21.70;99.90;;;;;;8405228;28;19924;-70
2023/08/13 14:46:10;;;;;;;;;;;21.80;99.90;;;;;;8410378;27;19925;-70
2023/08/13 14:50:11;;;;;;;;;;;21.70;99.90;;;;;;8400125;28;20369;-70
2023/08/13 14:54:13;;;;;;;;;;;21.70;99.90;;;;;;8398600;28;19984;-70
2023/08/13 14:58:15;;;;;;;;;;;21.70;99.90;;;;;;8397967;28;20477;-71
2023/08/13 15:02:16;;;;;;;;;;;21.70;99.90;;;;;;8397756;28;19932;-70
2023/08/13 15:06:18;;;;;;;;;;;21.60;99.90;;;;;;8411029;27;19997;-70
2023/08/13 15:10:20;;;;;;;;;;;21.60;99.90;;;;;;8404858;28;19976;-70
2023/08/13 15:14:22;;;;;;;;;;;21.50;99.90;;;;;;8394574;28;19970;-70
2023/08/13 15:18:24;;;;;;;;;;;21.50;99.90;;;;;;8412845;27;19936;-71
2023/08/13 15:22:26;;;;;;;;;;;21.50;99.90;;;;;;8399375;28;19924;-71
2023/08/13 15:26:27;;;;;;;;;;;21.50;99.90;;;;;;8396262;28;19929;-71
2023/08/13 15:30:29;;;;;;;;;;;21.50;99.90;;;;;;8399043;28;19928;-71
2023/08/13 15:34:30;;;;;;;;;;;21.50;99.90;;;;;;8392021;28;19936;-70
2023/08/13 15:38:32;;;;;;;;;;;21.50;99.90;;;;;;8387557;28;19928;-71
2023/08/13 15:42:35;;;;;;;;;;;21.60;99.90;;;;;;8396419;28;19928;-70
2023/08/13 15:46:36;;;;;;;;;;;21.60;99.90;;;;;;8397723;28;19924;-70
2023/08/13 15:50:38;;;;;;;;;;;21.70;99.90;;;;;;8402742;28;19928;-71
2023/08/13 15:54:40;;;;;;;;;;;21.70;99.90;;;;;;8392071;28;19936;-71
2023/08/13 15:58:41;;;;;;;;;;;21.70;99.90;;;;;;8414294;27;20323;-71
2023/08/13 16:02:43;;;;;;;;;;;21.80;99.90;;;;;;8396883;28;19928;-71
2023/08/13 16:06:45;;;;;;;;;;;21.90;99.90;;;;;;8398302;28;19928;-71
2023/08/13 16:10:54;;;;;;;;;;;22.10;99.90;;;;;;8403696;28;19975;-71
2023/08/13 16:15:05;;;;;;;;;;;22.20;99.90;;;;;;8395196;28;19923;-71
2023/08/13 16:19:08;;;;;;;;;;;22.20;99.90;;;;;;8385687;28;19928;-71
2023/08/13 16:23:10;;;;;;;;;;;22.30;99.90;;;;;;8399359;28;20292;-71
2023/08/13 16:27:12;;;;;;;;;;;22.30;99.90;;;;;;8399086;28;20446;-71
2023/08/13 16:31:13;;;;;;;;;;;22.30;99.90;;;;;;8415315;28;19928;-71
2023/08/13 16:35:15;;;;;;;;;;;22.40;99.90;;;;;;8396559;28;20287;-70
2023/08/13 16:39:17;;;;;;;;;;;22.50;99.90;;;;;;8397692;28;20279;-71
2023/08/13 16:43:19;;;;;;;;;;;22.50;99.90;;;;;;8391199;28;19925;-70
2023/08/13 16:47:21;;;;;;;;;;;22.70;99.90;;;;;;8392948;28;19951;-71
2023/08/13 16:51:23;;;;;;;;;;;22.70;99.90;;;;;;8396049;28;19924;-71
2023/08/13 16:55:26;;;;;;;;;;;22.60;99.90;;;;;;8393311;28;19932;-71
2023/08/13 16:59:27;;;;;;;;;;;22.50;99.90;;;;;;8374518;28;19953;-71
2023/08/13 17:03:29;;;;;;;;;;;22.40;99.90;;;;;;8410485;28;19980;-71
2023/08/13 17:07:31;;;;;;;;;;;22.50;99.90;;;;;;8394839;28;19972;-71
2023/08/13 17:11:32;;;;;;;;;;;22.70;99.90;;;;;;8401287;28;19935;-71
2023/08/13 17:15:34;;;;;;;;;;;22.80;99.90;;;;;;8401841;28;19959;-70
2023/08/13 17:19:36;;;;;;;;;;;22.90;99.90;;;;;;8398034;28;19928;-71
2023/08/13 17:23:37;;;;;;;;;;;22.80;99.90;;;;;;8396621;28;19932;-71
2023/08/13 17:27:39;;;;;;;;;;;22.70;99.90;;;;;;8413082;28;19924;-70
2023/08/13 17:31:41;;;;;;;;;;;22.60;99.90;;;;;;8402627;28;19924;-71
2023/08/13 17:35:42;;;;;;;;;;;22.50;99.90;;;;;;8401822;28;19925;-71
2023/08/13 17:39:44;;;;;;;;;;;22.40;99.90;;;;;;8386148;28;19974;-71
2023/08/13 17:43:46;;;;;;;;;;;22.40;99.90;;;;;;8402335;28;19936;-71
2023/08/13 17:47:47;;;;;;;;;;;22.40;99.90;;;;;;8410414;28;19927;-71
2023/08/13 17:51:49;;;;;;;;;;;22.30;99.90;;;;;;8401069;28;20014;-71
2023/08/13 17:55:51;;;;;;;;;;;22.30;99.90;;;;;;8393915;28;20292;-71
2023/08/13 17:59:52;;;;;;;;;;;22.20;99.90;;;;;;8405561;28;19955;-70
2023/08/13 18:03:54;;;;;;;;;;;22.10;99.90;;;;;;8396935;28;19968;-71
2023/08/13 18:07:56;;;;;;;;;;;22.10;99.90;;;;;;8394273;28;19924;-70
2023/08/13 18:12:09;;;;;;;;;;;22.00;99.90;;;;;;8415533;27;20354;-71
2023/08/13 18:16:10;;;;;;;;;;;22.00;99.90;;;;;;8401968;28;19924;-71
2023/08/13 18:20:12;;;;;;;;;;;21.90;99.90;;;;;;8408473;28;19931;-71
2023/08/13 18:24:14;;;;;;;;;;;21.90;99.90;;;;;;8402722;28;20380;-70
2023/08/13 18:28:16;;;;;;;;;;;21.90;99.90;;;;;;8401093;28;20351;-71
2023/08/13 18:32:17;;;;;;;;;;;21.80;99.90;;;;;;8400700;28;20257;-71
2023/08/13 18:36:19;;;;;;;;;;;21.80;99.90;;;;;;8399008;28;19924;-71
2023/08/13 18:40:21;;;;;;;;;;;21.70;99.90;;;;;;8399737;28;19924;-71
2023/08/13 18:44:22;;;;;;;;;;;21.60;99.90;;;;;;8401629;28;19989;-71
2023/08/13 18:48:24;;;;;;;;;;;21.50;99.90;;;;;;8404923;28;19987;-71
2023/08/13 18:52:26;;;;;;;;;;;21.40;99.90;;;;;;8404012;28;19925;-70
2023/08/13 18:56:27;;;;;;;;;;;21.30;99.90;;;;;;8400819;28;19925;-71
2023/08/13 19:00:29;;;;;;;;;;;21.30;99.90;;;;;;8420217;27;19962;-70
2023/08/13 19:04:31;;;;;;;;;;;21.20;99.90;;;;;;8407568;28;19925;-71
2023/08/13 19:08:34;;;;;;;;;;;21.10;99.90;;;;;;8406375;28;19993;-71
2023/08/13 19:12:35;;;;;;;;;;;21.00;99.90;;;;;;8407708;28;20028;-71
2023/08/13 19:16:37;;;;;;;;;;;20.90;99.90;;;;;;8416649;28;20367;-71
2023/08/13 19:20:39;;;;;;;;;;;20.80;99.90;;;;;;8395515;28;19939;-71
2023/08/13 19:24:41;;;;;;;;;;;20.70;99.90;;;;;;8391270;28;19932;-71
2023/08/13 19:28:43;;;;;;;;;;;20.60;99.90;;;;;;8399515;28;19932;-71
2023/08/13 19:32:45;;;;;;;;;;;20.50;99.90;;;;;;8387201;28;19974;-70
2023/08/13 19:36:46;;;;;;;;;;;20.50;99.90;;;;;;8394909;28;19979;-71
2023/08/13 19:40:48;;;;;;;;;;;20.40;99.90;;;;;;8399784;28;19924;-71
2023/08/13 19:44:50;;;;;;;;;;;20.30;99.90;;;;;;8386249;28;19970;-71
2023/08/13 19:48:52;;;;;;;;;;;20.30;99.90;;;;;;8398050;28;19929;-71
2023/08/13 19:52:54;;;;;;;;;;;20.20;99.90;;;;;;8396711;28;19982;-71
2023/08/13 19:56:55;;;;;;;;;;;20.10;99.90;;;;;;8418038;27;19924;-70
2023/08/13 20:01:00;;;;;;;;;;;20.10;99.90;;;;;;8397085;28;20002;-70
2023/08/13 20:05:01;;;;;;;;;;;20.00;99.90;;;;;;8392692;28;20391;-70
2023/08/13 20:09:03;;;;;;;;;;;19.90;99.90;;;;;;8416621;27;20368;-70
2023/08/13 20:13:05;;;;;;;;;;;19.80;99.90;;;;;;8400133;28;20342;-70
2023/08/13 20:17:06;;;;;;;;;;;19.70;99.90;;;;;;8396102;28;19924;-70
2023/08/13 20:21:08;;;;;;;;;;;19.70;99.90;;;;;;8413332;27;19956;-70
2023/08/13 20:25:10;;;;;;;;;;;19.60;99.90;;;;;;8397702;28;20399;-70
2023/08/13 20:29:12;;;;;;;;;;;19.50;99.90;;;;;;8400185;28;19947;-70
2023/08/13 20:33:16;;;;;;;;;;;19.50;99.90;;;;;;8396881;28;19928;-70
2023/08/13 20:37:18;;;;;;;;;;;19.40;99.90;;;;;;8400244;28;19997;-70
2023/08/13 20:41:20;;;;;;;;;;;19.40;99.90;;;;;;8415885;28;20335;-70
2023/08/13 20:45:21;;;;;;;;;;;19.40;99.90;;;;;;8388180;28;19929;-71
2023/08/13 20:49:23;;;;;;;;;;;19.30;99.90;;;;;;8394172;28;19932;-71
2023/08/13 20:53:25;;;;;;;;;;;19.30;99.90;;;;;;8398849;28;19933;-71
2023/08/13 20:57:28;;;;;;;;;;;19.20;99.90;;;;;;8398852;28;19961;-71
2023/08/13 21:01:31;;;;;;;;;;;19.20;99.90;;;;;;8396831;28;20986;-70
2023/08/13 21:05:33;;;;;;;;;;;19.10;99.90;;;;;;8413194;28;19932;-70
2023/08/13 21:09:34;;;;;;;;;;;19.10;99.90;;;;;;8437203;28;19923;-71
2023/08/13 21:13:36;;;;;;;;;;;19.00;99.90;;;;;;8437867;28;19924;-70
2023/08/13 21:17:38;;;;;;;;;;;19.00;99.90;;;;;;8421465;28;21365;-70
2023/08/13 21:21:40;;;;;;;;;;;18.90;99.90;;;;;;8401367;28;20369;-70
2023/08/13 21:25:42;;;;;;;;;;;18.90;99.90;;;;;;8416094;28;19932;-70
2023/08/13 21:29:43;;;;;;;;;;;18.80;99.90;;;;;;8439390;28;19931;-71
2023/08/13 21:33:45;;;;;;;;;;;18.80;99.90;;;;;;8425042;28;19927;-70
2023/08/13 21:47:54;;;;;;;;;;;18.60;99.90;;;;;;8431294;28;19919;-70
2023/08/13 21:51:55;;;;;;;;;;;18.50;99.90;;;;;;8434188;28;19931;-70
2023/08/13 21:55:57;;;;;;;;;;;18.50;99.90;;;;;;8415548;28;20272;-70
2023/08/13 21:59:59;;;;;;;;;;;18.50;99.90;;;;;;8425263;28;19947;-70
2023/08/13 22:04:00;;;;;;;;;;;18.40;99.90;;;;;;8435362;28;19928;-70
2023/08/13 22:08:02;;;;;;;;;;;18.40;99.90;;;;;;8446765;28;19959;-70
2023/08/13 22:12:04;;;;;;;;;;;18.30;99.90;;;;;;8461101;28;20285;-70
2023/08/13 22:16:06;;;;;;;;;;;18.30;99.90;;;;;;8477902;27;19927;-70
2023/08/13 22:20:08;;;;;;;;;;;18.30;99.90;;;;;;8452008;28;19924;-70
2023/08/13 22:24:09;;;;;;;;;;;18.20;99.90;;;;;;8455321;27;19924;-70
2023/08/13 22:28:11;;;;;;;;;;;18.20;99.90;;;;;;8454165;28;20371;-70
2023/08/13 22:32:13;;;;;;;;;;;18.20;99.90;;;;;;8457437;27;19924;-70
2023/08/13 22:36:17;;;;;;;;;;;18.20;99.90;;;;;;8464165;27;19924;-70
2023/08/13 22:40:19;;;;;;;;;;;18.10;99.90;;;;;;8462024;28;19928;-70
2023/08/13 22:44:21;;;;;;;;;;;18.10;99.90;;;;;;8449062;27;20315;-70
2023/08/13 22:48:22;;;;;;;;;;;18.10;99.90;;;;;;8463013;27;19954;-70
2023/08/13 22:52:24;;;;;;;;;;;18.00;99.90;;;;;;8446319;28;19932;-70
2023/08/13 22:56:26;;;;;;;;;;;17.90;99.90;;;;;;8455426;28;19924;-71
2023/08/13 23:00:27;;;;;;;;;;;17.90;99.90;;;;;;8456987;28;20318;-70
2023/08/13 23:04:29;;;;;;;;;;;17.90;99.90;;;;;;8448948;27;20248;-70
2023/08/13 23:08:31;;;;;;;;;;;17.90;99.90;;;;;;8458475;28;19931;-70
2023/08/13 23:12:32;;;;;;;;;;;17.80;99.90;;;;;;8450336;28;19923;-71
2023/08/13 23:16:34;;;;;;;;;;;17.80;99.90;;;;;;8458196;28;19931;-71
2023/08/13 23:20:36;;;;;;;;;;;17.80;99.90;;;;;;8439223;28;20333;-71
2023/08/13 23:24:37;;;;;;;;;;;17.70;99.90;;;;;;8434319;28;19973;-70
2023/08/13 23:28:40;;;;;;;;;;;17.70;99.90;;;;;;8459111;28;20330;-70
2023/08/13 23:32:41;;;;;;;;;;;17.70;99.90;;;;;;8447705;28;19971;-70
2023/08/13 23:36:43;;;;;;;;;;;17.60;99.90;;;;;;8427976;27;20001;-70
2023/08/13 23:40:45;;;;;;;;;;;17.50;99.90;;;;;;8448038;28;19928;-70
2023/08/13 23:44:47;;;;;;;;;;;17.50;99.90;;;;;;8455500;28;19928;-71
2023/08/13 23:48:49;;;;;;;;;;;17.50;99.90;;;;;;8437961;28;20378;-71
2023/08/13 23:52:50;;;;;;;;;;;17.40;99.90;;;;;;8442669;28;20006;-70
2023/08/13 23:56:52;;;;;;;;;;;17.40;99.90;;;;;;8445754;28;19924;-71
